Latest Weather Observations for Parndana

IDS60801

Issued at 4:05 pm CST Tuesday 2 September 2014 (issued every 30 minutes, with the page automatically refreshed every 10 minutes)

About weather observations | Map of weather stations | Latest weather observations for SA | Other Formats
Station Details ID: 022843 Name: PARNDANA CFS AWS Lat: -35.79 Lon: 137.25 Height: 165.0 m
Data from the previous 72 hours. | See also: Recent months at Parndana
Date/Time
CST
Temp
°C
App
Temp
°C
Dew
Point
Rel
Hum
%
Delta-T
°C
Wind Press
QNH
hPa
Press
MSL
hPa
Rain
since 9 am
mm
Dir
 
Spd
km/h
Gust
km/h
Spd
kts
Gust
kts
02/04:00pm 10.5 6.2 7.2 80 1.6 S 19 24 10 13 - - 1.8
02/03:30pm 10.3 6.6 8.1 86 1.1 S 17 22 9 12 - - 1.8
02/03:00pm 10.8 7.5 9.4 91 0.7 SSW 17 24 9 13 - - 1.0
02/02:30pm 11.6 7.3 6.9 73 2.3 S 19 30 10 16 - - 1.0
02/02:00pm 10.0 5.8 7.6 85 1.2 S 19 28 10 15 - - 1.0
02/01:30pm 11.5 6.8 7.6 77 1.9 S 22 30 12 16 - - 0.2
02/01:00pm 11.2 6.8 9.1 87 1.1 S 22 32 12 17 - - 0.2
02/12:30pm 10.5 5.1 7.9 84 1.3 SSW 26 35 14 19 - - 0.2
02/12:00pm 12.0 7.4 8.3 78 1.8 S 22 30 12 16 - - 0.2
02/11:30am 12.7 8.1 9.7 82 1.5 S 24 33 13 18 - - 0.2
02/11:00am 11.4 5.7 8.4 82 1.5 S 28 41 15 22 - - 0.2
02/10:30am 11.4 6.7 7.9 79 1.7 S 22 37 12 20 - - 0.0
02/10:00am 10.5 4.8 6.8 78 1.8 S 26 41 14 22 - - 0.0
02/09:30am 11.7 6.8 7.0 73 2.3 S 22 35 12 19 - - 0.0
02/09:00am 11.4 6.8 6.5 72 2.3 S 20 33 11 18 - - 2.4
02/08:30am 9.8 6.3 7.1 83 1.3 S 15 26 8 14 - - 2.4
02/08:00am 9.4 6.0 7.5 88 0.9 SSW 15 20 8 11 - - 2.4
02/07:30am 8.8 5.0 5.9 82 1.3 S 15 19 8 10 - - 2.2
02/07:00am 8.3 4.5 5.6 83 1.2 SSW 15 24 8 13 - - 2.2
02/06:30am 7.9 3.9 4.8 81 1.4 SSW 15 22 8 12 - - 2.2
02/06:00am 8.4 3.5 5.0 79 1.5 SSW 20 32 11 17 - - 2.2
02/05:30am 7.3 4.0 4.4 82 1.3 SSW 11 15 6 8 - - 2.2
02/05:00am 7.7 3.6 4.5 80 1.4 SSW 15 19 8 10 - - 2.2
02/04:30am 7.5 3.0 4.3 80 1.4 SSW 17 22 9 12 - - 2.2
02/04:00am 7.8 3.3 4.4 79 1.5 SSW 17 24 9 13 - - 2.2
02/03:30am 7.6 2.4 3.8 77 1.6 SSW 20 30 11 16 - - 2.2
02/03:00am 7.5 3.1 4.6 82 1.3 SW 17 24 9 13 - - 2.2
02/02:30am 7.1 3.1 4.9 86 1.0 SW 15 20 8 11 - - 2.2
02/02:00am 7.6 2.4 5.4 86 1.0 SSW 22 33 12 18 - - 2.2
02/01:30am 7.4 2.4 4.7 83 1.2 SSW 20 28 11 15 - - 1.8
02/01:00am 7.5 3.4 4.6 82 1.3 SW 15 24 8 13 - - 1.8
02/12:30am 7.7 4.0 4.5 80 1.4 SW 13 17 7 9 - - 1.8
02/12:00am 7.8 2.8 4.4 79 1.5 SW 20 30 11 16 - - 1.8
 
Date/Time
CST
Temp
°C
App
Temp
°C
Dew
Point
Rel
Hum
%
Delta-T
°C
Wind Press
QNH
hPa
Press
MSL
hPa
Rain
since 9 am
mm
Dir
 
Spd
km/h
Gust
km/h
Spd
kts
Gust
kts
01/11:30pm 8.1 3.2 3.9 75 1.8 SW 19 26 10 14 - - 1.8
01/11:00pm 7.5 3.4 4.3 80 1.4 SW 15 20 8 11 - - 1.8
01/10:30pm 7.7 3.2 4.1 78 1.6 SW 17 22 9 12 - - 1.8
01/10:00pm 7.6 2.8 4.6 81 1.3 WSW 19 26 10 14 - - 1.8
01/09:30pm 5.8 2.0 4.1 89 0.7 W 13 17 7 9 - - 1.8
01/09:00pm 5.2 1.7 3.7 90 0.6 W 11 11 6 6 - - 1.8
01/08:30pm 6.1 3.2 4.4 89 0.7 WSW 9 11 5 6 - - 1.8
01/08:00pm 7.0 3.0 4.8 86 1.0 SW 15 19 8 10 - - 1.8
01/07:30pm 7.3 3.3 5.1 86 1.0 SSW 15 24 8 13 - - 1.8
01/07:00pm 7.3 3.0 5.1 86 1.0 SW 17 22 9 12 - - 1.8
01/06:30pm 7.7 2.5 5.7 87 0.9 SW 22 35 12 19 - - 1.8
01/06:00pm 7.3 2.6 5.1 86 1.0 WSW 19 22 10 12 - - 1.8
01/05:30pm 7.9 1.9 5.4 84 1.1 WSW 26 37 14 20 - - 1.8
01/05:10pm 9.5 2.9 5.9 78 1.7 SW 30 52 16 28 - - 1.0
01/05:00pm 9.6 3.7 6.0 78 1.7 SW 26 37 14 20 - - 1.0
01/04:34pm 10.8 4.0 6.7 76 2.0 SW 32 50 17 27 - - 1.0
01/04:30pm 11.1 4.6 6.6 74 2.1 SW 30 41 16 22 - - 1.0
01/04:00pm 11.1 5.8 6.8 75 2.1 WSW 24 32 13 17 - - 1.0
01/03:30pm 10.4 5.3 7.8 84 1.3 WSW 24 37 13 20 - - 1.0
01/03:00pm 10.6 4.6 7.1 79 1.7 WSW 28 41 15 22 - - 1.0
01/02:59pm 10.7 4.7 7.0 78 1.8 WSW 28 41 15 22 - - 1.0
01/02:30pm 12.0 8.6 7.7 75 2.1 W 15 22 8 12 - - 0.6
01/02:00pm 11.8 9.2 7.7 76 2.0 WSW 11 17 6 9 - - 0.6
01/01:30pm 10.0 5.8 7.6 85 1.2 WSW 19 28 10 15 - - 0.6
01/01:10pm 11.1 2.0 5.8 70 2.5 WSW 43 52 23 28 - - 0.0
01/01:00pm 13.9 9.2 5.3 56 4.1 SW 19 26 10 14 - - 0.0
01/12:30pm 13.1 6.5 4.3 55 4.0 W 28 39 15 21 - - 0.0
01/12:00pm 13.2 8.3 6.8 65 3.1 WSW 22 33 12 18 - - 0.0
01/11:30am 12.8 8.6 7.3 69 2.7 SW 19 24 10 13 - - 0.0
01/11:00am 13.4 9.0 7.4 67 3.0 W 20 30 11 16 - - 0.0
01/10:30am 12.8 8.0 5.7 62 3.4 SW 20 30 11 16 - - 0.0
01/10:00am 12.3 7.2 5.9 65 3.0 WSW 22 32 12 17 - - 0.0
01/09:30am 11.8 6.8 6.5 70 2.5 SW 22 32 12 17 - - 0.0
01/09:00am 11.3 6.9 7.2 76 2.0 WSW 20 28 11 15 - - 4.4
01/08:30am 10.5 6.5 6.6 77 1.8 WSW 17 24 9 13 - - 4.4
01/08:00am 9.7 6.1 6.6 81 1.5 WSW 15 20 8 11 - - 4.4
01/07:30am 8.9 5.4 7.0 88 0.9 WSW 15 20 8 11 - - 4.4
01/07:00am 7.9 5.1 7.0 94 0.4 WSW 11 15 6 8 - - 4.4
01/06:30am 8.1 5.3 6.9 92 0.6 WSW 11 13 6 7 - - 4.4
01/06:00am 9.2 6.7 8.0 92 0.6 WSW 11 17 6 9 - - 4.4
01/05:30am 9.7 5.8 8.5 92 0.6 WSW 19 28 10 15 - - 4.4
01/05:00am 10.1 7.7 8.7 91 0.7 WSW 11 17 6 9 - - 4.4
01/04:30am 10.2 8.3 9.0 92 0.6 W 9 11 5 6 - - 4.2
01/04:00am 10.3 8.4 9.2 93 0.6 WSW 9 11 5 6 - - 4.2
01/03:30am 10.5 8.7 9.4 93 0.6 W 9 13 5 7 - - 4.2
01/03:00am 10.6 8.8 9.4 92 0.6 WSW 9 15 5 8 - - 4.2
01/02:30am 10.8 8.3 9.6 92 0.6 WSW 13 17 7 9 - - 4.2
01/02:00am 10.9 8.8 9.8 93 0.6 WSW 11 15 6 8 - - 4.2
01/01:30am 10.9 8.4 9.7 92 0.6 WSW 13 17 7 9 - - 4.2
01/01:00am 11.1 8.7 9.9 92 0.6 WSW 13 17 7 9 - - 4.2
01/12:30am 11.2 9.2 10.0 92 0.6 W 11 13 6 7 - - 4.2
01/12:00am 11.2 8.7 9.6 90 0.8 W 13 19 7 10 - - 4.2
 
Date/Time
CST
Temp
°C
App
Temp
°C
Dew
Point
Rel
Hum
%
Delta-T
°C
Wind Press
QNH
hPa
Press
MSL
hPa
Rain
since 9 am
mm
Dir
 
Spd
km/h
Gust
km/h
Spd
kts
Gust
kts
31/11:30pm 11.4 8.6 10.0 91 0.7 WSW 15 26 8 14 - - 4.2
31/11:00pm 11.4 8.2 10.0 91 0.7 WSW 17 26 9 14 - - 4.2
31/10:30pm 11.4 7.9 10.3 93 0.6 WSW 19 24 10 13 - - 4.2
31/10:00pm 11.2 9.6 10.3 94 0.5 W 9 15 5 8 - - 4.2
31/09:30pm 11.2 10.0 10.3 94 0.5 WSW 7 9 4 5 - - 4.2
31/09:00pm 11.4 9.5 10.5 94 0.5 W 11 15 6 8 - - 4.0
31/08:30pm 11.6 10.2 10.8 95 0.4 W 9 13 5 7 - - 3.8
31/08:00pm 12.0 8.6 11.1 94 0.5 W 20 30 11 16 - - 3.0
31/07:30pm 12.5 11.2 11.4 93 0.6 W 9 15 5 8 - - 1.6
31/07:00pm 12.6 11.4 11.5 93 0.6 NW 9 11 5 6 - - 0.4
31/06:30pm 12.8 11.4 11.0 89 1.0 NW 9 11 5 6 - - 0.0
31/06:00pm 13.1 11.6 10.6 85 1.3 NW 9 11 5 6 - - 0.0
31/05:30pm 13.6 11.6 10.0 79 1.9 NW 11 15 6 8 - - 0.0
31/05:00pm 14.2 11.7 9.8 75 2.3 NNW 13 17 7 9 - - 0.0
31/04:30pm 14.8 12.2 9.2 69 2.9 NNW 13 19 7 10 - - 0.0
31/04:00pm 15.3 13.3 8.8 65 3.3 NNW 9 15 5 8 - - 0.0
31/03:30pm 15.4 11.6 7.4 59 4.0 NNW 17 22 9 12 - - 0.0
31/03:00pm 15.4 10.9 6.9 57 4.2 NNW 20 24 11 13 - - 0.0
31/02:30pm 15.7 9.2 6.7 55 4.4 WNW 30 41 16 22 - - 0.0
31/02:00pm 16.7 10.5 6.2 50 5.2 NNW 28 43 15 23 - - 0.0
31/01:46pm 16.9 11.1 8.1 56 4.5 NNW 28 46 15 25 - - 0.0
31/01:30pm 16.9 11.6 6.7 51 5.1 N 24 37 13 20 - - 0.0
31/01:06pm 15.9 9.5 6.9 55 4.5 NNW 30 39 16 21 - - 0.0
31/01:00pm 15.7 12.4 6.4 54 4.6 N 13 19 7 10 - - 0.0
31/12:30pm 15.3 10.7 5.8 53 4.6 N 19 33 10 18 - - 0.0
31/12:00pm 15.2 10.7 7.0 58 4.1 N 20 37 11 20 - - 0.0
31/11:30am 15.5 11.2 7.0 57 4.2 N 19 33 10 18 - - 0.0
31/11:00am 15.7 10.8 7.0 56 4.3 NNW 22 32 12 17 - - 0.0
31/10:30am 17.2 11.3 7.3 52 5.0 NNW 28 39 15 21 - - 0.0
31/10:00am 15.8 11.0 7.3 57 4.2 NNW 22 33 12 18 - - 0.0
31/09:30am 15.2 9.3 6.0 54 4.5 N 26 35 14 19 - - 0.0
31/09:00am 15.0 9.8 5.5 53 4.6 NNW 22 32 12 17 - - 0.0
31/08:30am 14.8 9.8 4.8 51 4.7 NNW 20 28 11 15 - - 0.0
31/08:00am 14.1 9.5 5.5 56 4.1 N 19 26 10 14 - - 0.0
31/07:30am 13.6 9.1 6.0 60 3.6 N 19 24 10 13 - - 0.0
31/07:00am 13.3 9.2 6.2 62 3.4 N 17 22 9 12 - - 0.0
31/06:30am 13.5 9.3 5.9 60 3.6 N 17 24 9 13 - - 0.0
31/06:00am 14.0 9.4 5.4 56 4.1 NNW 19 26 10 14 - - 0.0
31/05:30am 14.3 9.4 4.9 53 4.4 NNW 20 28 11 15 - - 0.0
31/05:00am 14.4 9.1 5.0 53 4.4 NNW 22 32 12 17 - - 0.0
31/04:30am 14.4 10.0 4.7 52 4.5 NNW 17 24 9 13 - - 0.0
31/04:00am 14.0 9.8 5.6 57 4.0 NNW 17 22 9 12 - - 0.0
31/03:30am 13.7 10.4 6.3 61 3.6 NNW 13 17 7 9 - - 0.0
31/03:00am 14.4 10.5 5.2 54 4.4 NNW 15 26 8 14 - - 0.0
31/02:30am 15.0 10.3 3.2 45 5.4 NNW 17 22 9 12 - - 0.0
31/02:00am 14.9 9.9 3.4 46 5.3 NNW 19 24 10 13 - - 0.0
31/01:30am 14.7 9.7 3.5 47 5.1 N 19 28 10 15 - - 0.0
31/01:00am 14.3 9.4 4.0 50 4.8 N 19 24 10 13 - - 0.0
31/12:30am 14.2 9.8 4.5 52 4.5 N 17 20 9 11 - - 0.0
31/12:00am 14.8 10.0 4.5 50 4.8 N 19 26 10 14 - - 0.0
 
Date/Time
CST
Temp
°C
App
Temp
°C
Dew
Point
Rel
Hum
%
Delta-T
°C
Wind Press
QNH
hPa
Press
MSL
hPa
Rain
since 9 am
mm
Dir
 
Spd
km/h
Gust
km/h
Spd
kts
Gust
kts
30/11:30pm 15.1 10.5 3.6 46 5.3 N 17 20 9 11 - - 0.0
30/11:00pm 15.6 10.6 3.7 45 5.5 N 19 24 10 13 - - 0.0
30/10:30pm 15.7 10.7 3.5 44 5.6 N 19 22 10 12 - - 0.0
30/10:00pm 15.9 11.3 3.7 44 5.7 N 17 24 9 13 - - 0.0
30/09:30pm 17.0 11.0 3.3 40 6.4 N 24 35 13 19 - - 0.0
30/09:00pm 16.9 11.4 3.9 42 6.1 N 22 30 12 16 - - 0.0
30/08:30pm 17.3 11.3 3.6 40 6.4 N 24 32 13 17 - - 0.0
30/08:00pm 16.1 11.0 3.9 44 5.7 N 20 28 11 15 - - 0.0
30/07:30pm 16.2 11.0 3.3 42 6.0 N 20 26 11 14 - - 0.0
30/07:00pm 16.1 10.9 2.5 40 6.2 N 19 26 10 14 - - 0.0
30/06:30pm 15.4 11.0 4.5 48 5.1 N 17 22 9 12 - - 0.0
30/06:00pm 14.6 11.2 5.9 56 4.2 N 13 15 7 8 - - 0.0
30/05:30pm 15.3 12.4 6.3 55 4.4 N 11 13 6 7 - - 0.0
30/05:00pm 16.9 14.4 6.7 51 5.1 N 9 13 5 7 - - 0.0
30/04:30pm 17.9 14.6 6.4 47 5.7 N 13 19 7 10 - - 0.0

Other Formats:

Comma delimited format used in spreadsheet applications
http://www.bom.gov.au/fwo/IDS60801/IDS60801.94807.axf

JavaScript Object Notation format (JSON) in row-major order
http://www.bom.gov.au/fwo/IDS60801/IDS60801.94807.json